createdAt,value
2022-12-18T00:02:16.697Z,102878.94
2022-12-18T00:04:43.694Z,102877.22
2022-12-18T00:07:10.622Z,102879.00
2022-12-18T00:09:39.994Z,102881.50
2022-12-18T00:14:42.761Z,102884.88
2022-12-18T00:17:09.570Z,102882.34
2022-12-18T00:19:37.641Z,102872.91
2022-12-18T00:22:04.442Z,102872.84
2022-12-18T00:24:31.329Z,102854.44
2022-12-18T00:26:58.336Z,102883.31
2022-12-18T00:29:25.113Z,102881.53
2022-12-18T00:31:52.038Z,102869.28
2022-12-18T00:34:19.109Z,102878.00
2022-12-18T00:36:48.984Z,102878.91
2022-12-18T00:39:15.726Z,102877.06
2022-12-18T00:42:03.605Z,102875.47
2022-12-18T00:44:31.875Z,102883.22
2022-12-18T00:46:58.723Z,102889.19
2022-12-18T00:49:25.640Z,102883.00
2022-12-18T00:51:54.351Z,102876.88
2022-12-18T00:54:21.251Z,102867.25
2022-12-18T00:56:49.951Z,102867.13
2022-12-18T00:59:18.907Z,102864.56
2022-12-18T01:01:46.113Z,102859.38
2022-12-18T01:04:13.121Z,102861.97
2022-12-18T01:06:40.150Z,102864.47
2022-12-18T01:09:08.690Z,102873.06
2022-12-18T01:11:37.566Z,102873.84
2022-12-18T01:14:05.119Z,102873.84
2022-12-18T01:16:32.223Z,102879.03
2022-12-18T01:18:59.138Z,102858.13
2022-12-18T01:21:28.151Z,102873.09
2022-12-18T01:23:56.329Z,102886.22
2022-12-18T01:26:26.528Z,102882.75
2022-12-18T01:28:55.448Z,102873.19
2022-12-18T01:31:26.199Z,102871.50
2022-12-18T01:33:53.994Z,102879.47
2022-12-18T01:36:23.348Z,102878.69
2022-12-18T01:38:51.380Z,102884.69
2022-12-18T01:41:23.599Z,102887.38
2022-12-18T01:43:54.887Z,102897.84
2022-12-18T01:46:25.453Z,102899.50
2022-12-18T01:49:01.021Z,102902.06
2022-12-18T01:51:28.584Z,102904.56
2022-12-18T01:53:55.617Z,102906.22
2022-12-18T01:56:22.827Z,102921.81
2022-12-18T01:58:57.221Z,102915.63
2022-12-18T02:01:25.461Z,102916.47
2022-12-18T02:03:52.787Z,102914.75
2022-12-18T02:06:25.209Z,102914.75
2022-12-18T02:09:03.927Z,102913.13
2022-12-18T02:11:43.847Z,102929.69
2022-12-18T02:14:22.857Z,102927.97
2022-12-18T02:16:58.551Z,102914.09
2022-12-18T02:19:45.425Z,102916.75
2022-12-18T02:22:31.234Z,102918.47
2022-12-18T02:25:12.760Z,102915.81
2022-12-18T02:27:43.219Z,102913.31
2022-12-18T02:30:11.085Z,102903.72
2022-12-18T02:32:44.421Z,102895.09
2022-12-18T02:35:17.709Z,102897.63
2022-12-18T02:37:47.120Z,102896.84
2022-12-18T02:40:15.876Z,102893.38
2022-12-18T02:42:44.446Z,102886.44
2022-12-18T02:45:15.036Z,102873.31
2022-12-18T02:47:44.981Z,102875.94
2022-12-18T02:50:20.690Z,102886.28
2022-12-18T02:52:54.433Z,102881.03
2022-12-18T02:55:34.064Z,102879.19
2022-12-18T02:58:15.547Z,102870.41
2022-12-18T03:00:49.459Z,102872.06
2022-12-18T03:03:22.831Z,102874.66
2022-12-18T03:05:53.769Z,102884.19
2022-12-18T03:08:24.806Z,102872.94
2022-12-18T03:10:59.166Z,102876.34
2022-12-18T03:13:34.483Z,102870.22
2022-12-18T03:16:04.459Z,102868.53
2022-12-18T03:18:37.712Z,102863.38
2022-12-18T03:21:07.565Z,102867.78
2022-12-18T03:23:42.345Z,102865.25
2022-12-18T03:26:15.604Z,102867.91
2022-12-18T03:28:50.143Z,102868.78
2022-12-18T03:31:21.120Z,102862.69
2022-12-18T03:33:53.444Z,102858.38
2022-12-18T03:36:24.999Z,102857.50
2022-12-18T03:38:52.749Z,102860.97
2022-12-18T03:41:32.672Z,102861.88
2022-12-18T03:44:24.844Z,102854.94
2022-12-18T03:46:59.633Z,102867.06
2022-12-18T03:49:35.291Z,102861.81
2022-12-18T03:52:10.142Z,102847.97
2022-12-18T03:54:41.954Z,102855.72
2022-12-18T03:57:18.051Z,102852.19
2022-12-18T03:59:48.441Z,102858.22
2022-12-18T04:02:20.173Z,102857.22
2022-12-18T04:04:48.917Z,102854.56
2022-12-18T04:07:18.378Z,102856.19
2022-12-18T04:09:46.842Z,102855.28
2022-12-18T04:12:14.980Z,102849.91
2022-12-18T04:14:41.959Z,102850.81
2022-12-18T04:17:11.607Z,102849.16
2022-12-18T04:19:38.372Z,102844.91
2022-12-18T04:22:05.155Z,102835.31
2022-12-18T04:24:38.430Z,102844.91
2022-12-18T04:27:13.602Z,102843.94
2022-12-18T04:29:44.514Z,102846.59
2022-12-18T04:32:12.648Z,102850.09
2022-12-18T04:34:41.798Z,102849.19
2022-12-18T04:37:09.202Z,102843.94
2022-12-18T04:39:36.808Z,102847.25
2022-12-18T04:42:08.930Z,102843.72
2022-12-18T04:44:35.676Z,102850.63
2022-12-18T04:47:02.482Z,102861.81
2022-12-18T04:49:30.622Z,102858.38
2022-12-18T04:51:57.496Z,102875.81
2022-12-18T04:54:24.286Z,102885.28
2022-12-18T04:56:51.157Z,102885.28
2022-12-18T04:59:18.013Z,102895.56
2022-12-18T05:01:44.822Z,102899.81
2022-12-18T05:04:11.867Z,102901.50
2022-12-18T05:06:40.337Z,102907.47
2022-12-18T05:09:07.724Z,102901.25
2022-12-18T05:11:37.375Z,102893.41
2022-12-18T05:14:04.201Z,102907.91
2022-12-18T05:16:31.215Z,102911.28
2022-12-18T05:18:57.944Z,102912.88
2022-12-18T05:21:24.739Z,102924.91
2022-12-18T05:23:52.866Z,102911.75
2022-12-18T05:26:20.224Z,102917.66
2022-12-18T05:28:47.230Z,102907.13
2022-12-18T05:31:15.290Z,102910.41
2022-12-18T05:33:42.732Z,102905.97
2022-12-18T05:36:10.622Z,102906.69
2022-12-18T05:38:39.071Z,102888.19
2022-12-18T05:41:08.904Z,102901.09
2022-12-18T05:43:37.544Z,102875.66
2022-12-18T05:46:06.596Z,102888.63
2022-12-18T05:48:33.550Z,102891.88
2022-12-18T05:51:06.692Z,102895.97
2022-12-18T05:53:33.615Z,102895.69
2022-12-18T05:56:02.120Z,102899.06
2022-12-18T05:58:30.596Z,102898.34
2022-12-18T06:00:57.868Z,102888.78
2022-12-18T06:03:29.273Z,102889.47
2022-12-18T06:05:59.052Z,102886.03
2022-12-18T06:08:25.820Z,102896.50
2022-12-18T06:10:53.781Z,102890.47
2022-12-18T06:13:20.595Z,102887.75
2022-12-18T06:15:48.944Z,102885.22
2022-12-18T06:18:15.812Z,102877.59
2022-12-18T06:20:42.796Z,102870.88
2022-12-18T06:23:10.458Z,102866.56
2022-12-18T06:25:39.199Z,102878.03
2022-12-18T06:28:06.390Z,102871.16
2022-12-18T06:30:33.274Z,102862.63
2022-12-18T06:33:01.475Z,102864.47
2022-12-18T06:35:28.603Z,102862.97
2022-12-18T06:37:55.350Z,102855.25
2022-12-18T06:40:22.232Z,102847.66
2022-12-18T06:42:49.438Z,102845.97
2022-12-18T06:45:16.627Z,102840.72
2022-12-18T06:47:43.729Z,102840.78
2022-12-18T06:50:12.339Z,102832.06
2022-12-18T06:52:40.189Z,102827.78
2022-12-18T06:55:11.498Z,102819.09
2022-12-18T06:57:38.922Z,102819.94
2022-12-18T07:00:07.643Z,102821.72
2022-12-18T07:02:34.956Z,102818.22
2022-12-18T07:05:07.484Z,102817.34
2022-12-18T07:07:38.622Z,102819.88
2022-12-18T07:10:06.138Z,102804.75
2022-12-18T07:12:32.925Z,102814.47
2022-12-18T07:14:59.670Z,102820.53
2022-12-18T07:17:26.505Z,102810.13
2022-12-18T07:19:53.529Z,102801.50
2022-12-18T07:22:20.300Z,102798.03
2022-12-18T07:24:48.323Z,102799.72
2022-12-18T07:27:15.040Z,102800.59
2022-12-18T07:29:41.696Z,102801.44
2022-12-18T07:32:08.618Z,102793.75
2022-12-18T07:34:35.548Z,102794.63
2022-12-18T07:37:02.396Z,102794.66
2022-12-18T07:39:29.112Z,102786.88
2022-12-18T07:42:16.250Z,102788.66
2022-12-18T07:44:43.954Z,102794.72
2022-12-18T07:47:12.366Z,102790.31
2022-12-18T07:49:39.359Z,102782.50
2022-12-18T07:52:06.107Z,102782.59
2022-12-18T07:54:32.827Z,102769.72
2022-12-18T07:57:00.966Z,102763.91
2022-12-18T07:59:27.736Z,102759.59
2022-12-18T08:01:54.654Z,102761.47
2022-12-18T08:04:21.589Z,102763.31
2022-12-18T08:06:48.608Z,102756.41
2022-12-18T08:09:15.457Z,102769.41
2022-12-18T08:11:42.843Z,102772.91
2022-12-18T08:14:11.372Z,102763.44
2022-12-18T08:16:38.394Z,102754.00
2022-12-18T08:19:05.250Z,102771.53
2022-12-18T08:21:32.822Z,102770.72
2022-12-18T08:24:01.829Z,102775.16
2022-12-18T08:26:31.465Z,102768.22
2022-12-18T08:28:59.850Z,102775.28
2022-12-18T08:31:30.617Z,102785.78
2022-12-18T08:33:58.529Z,102795.22
2022-12-18T08:36:26.251Z,102797.84
2022-12-18T08:38:53.999Z,102811.00
2022-12-18T08:41:21.912Z,102820.56
2022-12-18T08:44:07.340Z,102809.34
2022-12-18T08:46:37.891Z,102806.91
2022-12-18T08:49:06.099Z,102786.25
2022-12-18T08:51:33.317Z,102778.63
2022-12-18T08:54:00.227Z,102769.31
2022-12-18T08:56:27.102Z,102765.09
2022-12-18T08:58:54.245Z,102773.22
2022-12-18T09:01:21.840Z,102772.53
2022-12-18T09:03:50.703Z,102765.66
2022-12-18T09:06:19.046Z,102777.94
2022-12-18T09:08:46.624Z,102779.78
2022-12-18T09:11:15.838Z,102790.25
2022-12-18T09:13:42.910Z,102788.56
2022-12-18T09:16:09.927Z,102787.78
2022-12-18T09:18:47.929Z,102779.13
2022-12-18T09:21:24.712Z,102787.88
2022-12-18T09:23:52.364Z,102771.38
2022-12-18T09:26:19.327Z,102766.13
2022-12-18T09:28:46.427Z,102768.81
2022-12-18T09:31:14.213Z,102755.84
2022-12-18T09:33:41.616Z,102766.31
2022-12-18T09:36:16.038Z,102748.16
2022-12-18T09:38:46.254Z,102749.03
2022-12-18T09:41:29.450Z,102740.44
2022-12-18T09:43:59.974Z,102731.78
2022-12-18T09:46:31.567Z,102717.03
2022-12-18T09:49:02.134Z,102718.03
2022-12-18T09:51:36.048Z,102709.47
2022-12-18T09:54:06.732Z,102685.06
2022-12-18T09:56:38.692Z,102701.69
2022-12-18T09:59:06.525Z,102699.06
2022-12-18T10:01:41.723Z,102703.44
2022-12-18T10:04:11.349Z,102701.72
2022-12-18T10:06:47.358Z,102689.56
2022-12-18T10:09:24.437Z,102701.81
2022-12-18T10:11:57.591Z,102693.94
2022-12-18T10:14:31.219Z,102694.88
2022-12-18T10:17:04.944Z,102696.66
2022-12-18T10:19:41.263Z,102686.25
2022-12-18T10:22:22.466Z,102680.19
2022-12-18T10:25:00.498Z,102683.72
2022-12-18T10:27:29.758Z,102691.59
2022-12-18T10:29:57.388Z,102684.69
2022-12-18T10:32:26.984Z,102690.81
2022-12-18T10:35:00.211Z,102700.41
2022-12-18T10:37:31.005Z,102700.44
2022-12-18T10:40:18.191Z,102697.84
2022-12-18T10:43:03.756Z,102703.09
2022-12-18T10:45:30.818Z,102695.41
2022-12-18T10:47:57.690Z,102669.22
2022-12-18T10:50:53.988Z,102693.69
2022-12-18T10:53:21.757Z,102698.13
2022-12-18T10:55:51.090Z,102704.19
2022-12-18T10:58:26.724Z,102690.28
2022-12-18T11:01:09.429Z,102681.53
2022-12-18T11:03:38.526Z,102678.06
2022-12-18T11:06:08.758Z,102666.75
2022-12-18T11:08:36.087Z,102651.94
2022-12-18T11:11:08.204Z,102662.41
2022-12-18T11:13:35.098Z,102658.94
2022-12-18T11:16:02.468Z,102637.19
2022-12-18T11:18:33.109Z,102642.44
2022-12-18T11:21:07.803Z,102625.88
2022-12-18T11:23:35.582Z,102631.16
2022-12-18T11:26:07.113Z,102630.28
2022-12-18T11:28:39.367Z,102633.78
2022-12-18T11:31:17.942Z,102636.41
2022-12-18T11:34:11.999Z,102632.09
2022-12-18T11:36:40.243Z,102626.91
2022-12-18T11:39:15.910Z,102620.84
2022-12-18T11:42:09.423Z,102616.53
2022-12-18T11:44:39.284Z,102618.31
2022-12-18T11:47:14.626Z,102614.00
2022-12-18T11:49:42.667Z,102607.06
2022-12-18T11:52:15.837Z,102591.41
2022-12-18T11:54:44.055Z,102581.00
2022-12-18T11:57:21.190Z,102581.88
2022-12-18T11:59:56.915Z,102574.06
2022-12-18T12:02:32.023Z,102568.91
2022-12-18T12:05:13.578Z,102572.38
2022-12-18T12:07:52.848Z,102568.94
2022-12-18T12:10:37.493Z,102561.06
2022-12-18T12:13:37.818Z,102560.25
2022-12-18T12:16:18.185Z,102564.63
2022-12-18T12:18:57.170Z,102548.97
2022-12-18T12:21:29.767Z,102553.31
2022-12-18T12:24:05.385Z,102564.66
2022-12-18T12:26:39.981Z,102548.13
2022-12-18T12:29:24.519Z,102544.63
2022-12-18T12:32:08.709Z,102530.75
2022-12-18T12:34:46.918Z,102531.59
2022-12-18T12:37:24.776Z,102541.22
2022-12-18T12:39:54.656Z,102535.97
2022-12-18T12:42:43.064Z,102526.44
2022-12-18T12:45:19.092Z,102534.25
2022-12-18T12:47:50.479Z,102541.22
2022-12-18T12:50:20.074Z,102533.41
2022-12-18T12:52:51.016Z,102530.81
2022-12-18T12:55:21.522Z,102529.06
2022-12-18T12:57:59.145Z,102533.44
2022-12-18T13:00:31.539Z,102524.75
2022-12-18T13:03:13.130Z,102523.84
2022-12-18T13:05:47.290Z,102534.31
2022-12-18T13:08:25.321Z,102515.16
2022-12-18T13:11:13.742Z,102509.97
2022-12-18T13:13:51.490Z,102510.81
2022-12-18T13:16:21.060Z,102512.56
2022-12-18T13:18:53.818Z,102496.88
2022-12-18T13:21:25.049Z,102498.63
2022-12-18T13:23:52.362Z,102482.97
2022-12-18T13:26:33.453Z,102465.56
2022-12-18T13:29:03.073Z,102450.72
2022-12-18T13:32:08.768Z,102452.47
2022-12-18T13:34:37.603Z,102451.63
2022-12-18T13:37:44.369Z,102437.69
2022-12-18T13:40:40.954Z,102441.16
2022-12-18T13:43:32.317Z,102428.94
2022-12-18T13:46:18.476Z,102445.47
2022-12-18T13:48:56.276Z,102428.97
2022-12-18T13:51:26.275Z,102419.34
2022-12-18T13:53:58.655Z,102432.44
2022-12-18T13:56:27.578Z,102422.84
2022-12-18T13:59:23.269Z,102405.44
2022-12-18T14:01:55.185Z,102405.47
2022-12-18T14:04:26.209Z,102395.00
2022-12-18T14:06:58.814Z,102400.22
2022-12-18T14:09:29.077Z,102388.94
2022-12-18T14:12:18.391Z,102388.03
2022-12-18T14:14:48.201Z,102388.06
2022-12-18T14:17:16.855Z,102375.88
2022-12-18T14:19:47.593Z,102376.72
2022-12-18T14:22:22.130Z,102364.56
2022-12-18T14:25:11.796Z,102370.63
2022-12-18T14:27:42.556Z,102352.34
2022-12-18T14:30:26.752Z,102348.88
2022-12-18T14:33:01.972Z,102342.78
2022-12-18T14:35:29.319Z,102347.13
2022-12-18T14:38:25.830Z,102341.94
2022-12-18T14:40:59.338Z,102334.09
2022-12-18T14:43:27.578Z,102333.25
2022-12-18T14:45:55.067Z,102334.09
2022-12-18T14:48:31.607Z,102318.41
2022-12-18T14:51:01.026Z,102326.25
2022-12-18T14:53:37.776Z,102304.50
2022-12-18T14:56:14.795Z,102314.09
2022-12-18T14:58:46.557Z,102328.03
2022-12-18T15:01:20.651Z,102318.47
2022-12-18T15:03:47.717Z,102312.34
2022-12-18T15:06:25.518Z,102293.22
2022-12-18T15:08:54.275Z,102296.69
2022-12-18T15:11:30.062Z,102290.59
2022-12-18T15:13:59.707Z,102281.91
2022-12-18T15:16:27.192Z,102279.28
2022-12-18T15:18:54.716Z,102270.56
2022-12-18T15:21:22.151Z,102287.13
2022-12-18T15:23:51.633Z,102284.50
2022-12-18T15:26:22.869Z,102284.50
2022-12-18T15:28:52.030Z,102296.69
2022-12-18T15:31:29.787Z,102273.19
2022-12-18T15:34:15.255Z,102274.94
2022-12-18T15:36:42.055Z,102272.31
2022-12-18T15:39:12.373Z,102278.41
2022-12-18T15:41:40.763Z,102270.59
2022-12-18T15:44:23.820Z,102274.94
2022-12-18T15:46:50.769Z,102262.75
2022-12-18T15:49:17.709Z,102252.31
2022-12-18T15:51:44.855Z,102247.06
2022-12-18T15:54:17.175Z,102233.16
2022-12-18T15:57:04.133Z,102225.31
2022-12-18T15:59:31.027Z,102228.78
2022-12-18T16:01:57.934Z,102214.88
2022-12-18T16:04:26.030Z,102209.63
2022-12-18T16:07:14.765Z,102227.91
2022-12-18T16:09:39.839Z,102219.22
2022-12-18T16:12:17.089Z,102229.66
2022-12-18T16:14:44.376Z,102230.53
2022-12-18T16:17:12.770Z,102234.88
2022-12-18T16:19:39.943Z,102218.31
2022-12-18T16:22:18.833Z,102184.38
2022-12-18T16:24:45.712Z,102194.81
2022-12-18T16:27:13.917Z,102202.66
2022-12-18T16:29:40.813Z,102206.09
2022-12-18T16:32:07.715Z,102204.38
2022-12-18T16:34:36.298Z,102191.31
2022-12-18T16:37:05.970Z,102170.41
2022-12-18T16:39:35.135Z,102171.28
2022-12-18T16:42:05.311Z,102167.78
2022-12-18T16:44:34.988Z,102169.53
2022-12-18T16:47:04.174Z,102177.38
2022-12-18T16:49:32.002Z,102182.59
2022-12-18T16:51:59.196Z,102180.84
2022-12-18T16:54:26.270Z,102177.38
2022-12-18T16:56:53.330Z,102170.38
2022-12-18T16:59:20.346Z,102179.09
2022-12-18T17:01:48.923Z,102165.19
2022-12-18T17:04:17.300Z,102172.13
2022-12-18T17:06:51.854Z,102168.63
2022-12-18T17:09:26.357Z,102170.38
2022-12-18T17:11:54.126Z,102149.47
2022-12-18T17:14:23.289Z,102150.34
2022-12-18T17:17:19.205Z,102152.94
2022-12-18T17:19:39.764Z,102153.81
2022-12-18T17:22:08.246Z,102142.47
2022-12-18T17:24:35.686Z,102145.97
2022-12-18T17:27:02.988Z,102159.88
2022-12-18T17:29:30.593Z,102143.34
2022-12-18T17:32:00.172Z,102141.56
2022-12-18T17:34:27.480Z,102141.53
2022-12-18T17:36:54.302Z,102141.56
2022-12-18T17:39:21.540Z,102138.91
2022-12-18T17:41:49.514Z,102131.94
2022-12-18T17:44:16.882Z,102133.69
2022-12-18T17:46:44.249Z,102122.31
2022-12-18T17:49:12.678Z,102133.63
2022-12-18T17:51:39.480Z,102133.66
2022-12-18T17:54:06.513Z,102134.53
2022-12-18T17:56:33.469Z,102117.94
2022-12-18T17:59:01.247Z,102133.63
2022-12-18T18:01:28.309Z,102136.28
2022-12-18T18:04:00.545Z,102134.53
2022-12-18T18:06:30.099Z,102125.78
2022-12-18T18:08:58.222Z,102126.69
2022-12-18T18:11:44.147Z,102128.44
2022-12-18T18:14:15.929Z,102119.66
2022-12-18T18:16:44.344Z,102116.19
2022-12-18T18:19:13.575Z,102110.06
2022-12-18T18:21:43.380Z,102113.56
2022-12-18T18:24:12.841Z,102106.56
2022-12-18T18:26:41.672Z,102102.19
2022-12-18T18:29:09.636Z,102101.34
2022-12-18T18:31:40.831Z,102095.19
2022-12-18T18:34:08.516Z,102079.53
2022-12-18T18:36:35.470Z,102098.75
2022-12-18T18:39:04.448Z,102096.09
2022-12-18T18:41:31.459Z,102089.97
2022-12-18T18:43:59.144Z,102077.78
2022-12-18T18:46:26.396Z,102086.53
2022-12-18T18:48:53.925Z,102087.38
2022-12-18T18:51:21.941Z,102077.75
2022-12-18T18:53:51.024Z,102087.34
2022-12-18T18:59:08.203Z,102071.63
2022-12-18T19:01:35.220Z,102074.22
2022-12-18T19:04:02.332Z,102073.31
2022-12-18T19:06:29.939Z,102076.78
2022-12-18T19:08:59.213Z,102061.16
2022-12-18T19:11:46.400Z,102070.72
2022-12-18T19:14:15.490Z,102069.84
2022-12-18T19:16:43.673Z,102054.16
2022-12-18T19:19:11.972Z,102058.44
2022-12-18T19:21:40.059Z,102054.16
2022-12-18T19:24:07.554Z,102054.13
2022-12-18T19:26:37.895Z,102057.59
2022-12-18T19:29:06.483Z,102058.44
2022-12-18T19:31:36.460Z,102059.25
2022-12-18T19:34:05.149Z,102079.31
2022-12-18T19:36:33.670Z,102070.59
2022-12-18T19:39:01.831Z,102082.78
2022-12-18T19:41:32.060Z,102076.69
2022-12-18T19:44:07.350Z,102081.91
2022-12-18T19:46:37.162Z,102078.38
2022-12-18T19:49:08.922Z,102065.25
2022-12-18T19:51:36.069Z,102078.34
2022-12-18T19:54:03.010Z,102052.28
2022-12-18T19:56:31.787Z,102070.44
2022-12-18T19:58:59.124Z,102058.16
2022-12-18T20:01:28.632Z,102063.44
2022-12-18T20:03:56.921Z,102038.16
2022-12-18T20:06:27.916Z,102051.22
2022-12-18T20:09:00.145Z,102050.34
2022-12-18T20:11:28.474Z,102042.47
2022-12-18T20:13:56.020Z,102051.28
2022-12-18T20:16:25.305Z,102043.38
2022-12-18T20:18:58.636Z,102050.47
2022-12-18T20:21:26.857Z,102046.97
2022-12-18T20:23:55.911Z,102053.13
2022-12-18T20:26:24.045Z,102052.28
2022-12-18T20:28:50.949Z,102043.59
2022-12-18T20:31:17.827Z,102043.63
2022-12-18T20:33:46.324Z,102045.34
2022-12-18T20:36:22.096Z,102038.41
2022-12-18T20:38:51.195Z,102029.72
2022-12-18T20:41:19.946Z,102033.16
2022-12-18T20:43:47.788Z,101995.69
2022-12-18T20:46:16.734Z,102018.34
2022-12-18T20:48:44.857Z,102021.88
2022-12-18T20:51:13.437Z,102022.69
2022-12-18T20:53:42.602Z,102010.53
2022-12-18T20:56:12.013Z,102008.75
2022-12-18T20:58:38.838Z,102005.28
2022-12-18T21:01:08.430Z,102013.13
2022-12-18T21:03:37.379Z,101997.41
2022-12-18T21:06:05.007Z,102000.06
2022-12-18T21:08:32.065Z,101994.81
2022-12-18T21:11:34.816Z,101991.28
2022-12-18T21:14:01.874Z,101979.97
2022-12-18T21:16:28.944Z,101980.84
2022-12-18T21:18:56.317Z,101978.22
2022-12-18T21:21:26.952Z,101967.78
2022-12-18T21:23:54.612Z,101974.75
2022-12-18T21:26:24.961Z,101968.63
2022-12-18T21:28:55.419Z,101961.63
2022-12-18T21:31:23.561Z,101952.06
2022-12-18T21:33:51.991Z,101946.81
2022-12-18T21:36:22.776Z,101926.78
2022-12-18T21:38:49.804Z,101932.88
2022-12-18T21:41:41.926Z,101927.66
2022-12-18T21:44:12.925Z,101904.09
2022-12-18T21:46:41.489Z,101931.13
2022-12-18T21:49:09.402Z,101920.63
2022-12-18T21:51:36.998Z,101911.91
2022-12-18T21:54:04.354Z,101914.56
2022-12-18T21:56:44.294Z,101920.63
2022-12-18T21:59:13.735Z,101892.72
2022-12-18T22:01:40.793Z,101904.94
2022-12-18T22:04:07.781Z,101901.44
2022-12-18T22:06:34.974Z,101899.69
2022-12-18T22:09:02.011Z,101892.72
2022-12-18T22:11:28.871Z,101890.97
2022-12-18T22:13:56.115Z,101881.38
2022-12-18T22:16:26.110Z,101868.31
2022-12-18T22:18:53.114Z,101872.69
2022-12-18T22:21:28.711Z,101859.63
2022-12-18T22:23:58.172Z,101863.06
2022-12-18T22:26:26.565Z,101849.13
2022-12-18T22:29:12.317Z,101852.66
2022-12-18T22:31:41.930Z,101841.31
2022-12-18T22:34:09.157Z,101834.31
2022-12-18T22:36:37.579Z,101840.47
2022-12-18T22:39:06.521Z,101838.66
2022-12-18T22:41:33.422Z,101827.38
2022-12-18T22:44:00.329Z,101823.88
2022-12-18T22:46:31.030Z,101807.22
2022-12-18T22:48:59.315Z,101799.38
2022-12-18T22:51:26.180Z,101808.97
2022-12-18T22:53:53.117Z,101808.06
2022-12-18T22:56:21.983Z,101806.34
2022-12-18T22:58:49.888Z,101795.03
2022-12-18T23:01:20.131Z,101792.41
2022-12-18T23:03:47.461Z,101797.63
2022-12-18T23:06:16.010Z,101794.97
2022-12-18T23:08:43.670Z,101800.22
2022-12-18T23:11:11.639Z,101781.03
2022-12-18T23:13:38.991Z,101786.22
2022-12-18T23:16:07.485Z,101778.31
2022-12-18T23:18:34.572Z,101765.25
2022-12-18T23:21:05.936Z,101770.44
2022-12-18T23:23:37.041Z,101757.34
2022-12-18T23:26:06.098Z,101772.13
2022-12-18T23:28:33.525Z,101763.41
2022-12-18T23:31:06.571Z,101759.97
2022-12-18T23:33:33.632Z,101760.81
2022-12-18T23:36:01.111Z,101754.72
2022-12-18T23:38:28.341Z,101749.50
2022-12-18T23:40:57.076Z,101765.94
2022-12-18T23:43:24.929Z,101754.63
2022-12-18T23:45:55.631Z,101763.31
2022-12-18T23:48:22.863Z,101769.38
2022-12-18T23:50:49.637Z,101762.34
2022-12-18T23:53:16.451Z,101769.38
2022-12-18T23:55:44.406Z,101775.47
2022-12-18T23:58:17.435Z,101778.06
